Huvudsida
METAR-TAF:

METAR-TAF

Flygplatser :

Samedans flygplats

Sankt Moritz, Schweiz

latitud: 46-32-03N, longitud: 9-53-03E, höjd: 1707 m

Aktuellt väderrapport

Denna rapport gjordes för 12 minuter sedan, klockan 17:20 UTC
Vind 5 kt från nordost
Temperatur -5°C
Fuktighet 42%
Tryck 1016 hPa
Sikt 10 km eller mer
Spridda moln på en höjd av 6500 ft

METAR: LSZS 281720Z 05005KT 9999 SCT065 M05/M16 Q1016 RMK U TL170

Tid: 18:32 (17:32 UTC)

Väderprognos

Denna rapport gjordes för 3 timmar och 7 minuter sedan, klockan 14:25 UTC
Prognos gäller från 28 kl. 15 UTC till 28 kl. 24 UTC
Vind 3 kt varierande vindriktning
Sikt 10 km eller mer
Inga moln under 1 500 m eller inga cumulonimbus
Blir
från 28 kl. 17 UTC till 28 kl. 20 UTC
Sikt 10 km eller mer
Brutna moln på en höjd av 7000 ft

TAF: LSZS 281425Z 2815/2824 VRB03KT CAVOK TXM03/2815Z BECMG 2817/2820 9999 BKN070

Aktuella väderrapporter och prognoser från 4000 flygplatser (METAR- och TAF-rapporter).

De tillgängliga stationerna syns som gula och röda prickar på kartan.

För musen över prickarna för att se namnen på stationerna.

Klicka sedan för att få väderrapporter och prognoser.

För att ändra kartan: Klicka på de gröna knapparna med ett svart kors på för att zooma in; den gröna knappen med ett streck på för att zooma ut; eller på de gröna pilarna för angränsande kartor.


METAR-TAF: